LOT3881 EPWA-EPKT
Flight info
| Callsign | LOT3881 |
|---|---|
| Flight time | 0h 30m |
| Altitude | 22000 |
| Route | EVINA M66 KUKAM |
| Aircraft | E190/M-SDE3GILORVW/S |
Departure
| Time | 2026-04-30 19:41 |
|---|---|
| Airport | Warsaw Chopin Airport (EPWA) |
Arrival
| Time | 2026-04-30 20:11 |
|---|---|
| Airport | Katowice Wojciech Korfanty International Airport (EPKT) |
| Time | Latitude | Longitude | Altitude | Speed | Heading |
|---|---|---|---|---|---|
| 2026-04-30 19:16 | 52.17440 | 20.96975 | 365 ft | 0 kts | 242° |
| 2026-04-30 19:30 | 52.17440 | 20.96974 | 365 ft | 0 kts | 242° |
| 2026-04-30 19:31 | 52.17450 | 20.97003 | 365 ft | 2 kts | 242° |
| 2026-04-30 19:31 | 52.17457 | 20.97024 | 365 ft | 2 kts | 242° |
| 2026-04-30 19:31 | 52.17468 | 20.97069 | 365 ft | 2 kts | 278° |
| 2026-04-30 19:32 | 52.17461 | 20.97091 | 365 ft | 2 kts | 317° |
| 2026-04-30 19:32 | 52.17454 | 20.97099 | 365 ft | 0 kts | 333° |
| 2026-04-30 19:32 | 52.17453 | 20.97100 | 365 ft | 0 kts | 333° |
| 2026-04-30 19:35 | 52.17468 | 20.97086 | 365 ft | 5 kts | 332° |
| 2026-04-30 19:35 | 52.17524 | 20.97039 | 365 ft | 11 kts | 332° |
| 2026-04-30 19:35 | 52.17605 | 20.96966 | 365 ft | 7 kts | 317° |
| 2026-04-30 19:35 | 52.17591 | 20.96868 | 365 ft | 12 kts | 237° |
| 2026-04-30 19:36 | 52.17540 | 20.96728 | 365 ft | 15 kts | 239° |
| 2026-04-30 19:36 | 52.17487 | 20.96601 | 365 ft | 13 kts | 230° |
| 2026-04-30 19:36 | 52.17363 | 20.96425 | 365 ft | 13 kts | 154° |
| 2026-04-30 19:37 | 52.17263 | 20.96512 | 365 ft | 18 kts | 152° |
| 2026-04-30 19:37 | 52.17139 | 20.96627 | 365 ft | 21 kts | 150° |
| 2026-04-30 19:37 | 52.17003 | 20.96736 | 365 ft | 20 kts | 152° |
| 2026-04-30 19:37 | 52.16889 | 20.96837 | 365 ft | 18 kts | 154° |
| 2026-04-30 19:38 | 52.16761 | 20.96948 | 365 ft | 20 kts | 152° |
| 2026-04-30 19:38 | 52.16662 | 20.97066 | 365 ft | 13 kts | 118° |
| 2026-04-30 19:38 | 52.16621 | 20.97202 | 365 ft | 15 kts | 112° |
| 2026-04-30 19:38 | 52.16569 | 20.97382 | 365 ft | 19 kts | 113° |
| 2026-04-30 19:39 | 52.16506 | 20.97607 | 365 ft | 23 kts | 117° |
| 2026-04-30 19:39 | 52.16450 | 20.97787 | 365 ft | 6 kts | 141° |
| 2026-04-30 19:39 | 52.16397 | 20.97789 | 365 ft | 10 kts | 201° |
| 2026-04-30 19:39 | 52.16318 | 20.97725 | 365 ft | 13 kts | 226° |
| 2026-04-30 19:40 | 52.16333 | 20.97570 | 365 ft | 16 kts | 295° |
| 2026-04-30 19:40 | 52.16467 | 20.97102 | 365 ft | 86 kts | 294° |
| 2026-04-30 19:40 | 52.16820 | 20.95840 | 365 ft | 153 kts | 294° |
| 2026-04-30 19:40 | 52.17309 | 20.94048 | 496 ft | 192 kts | 293° |
| 2026-04-30 19:41 | 52.17860 | 20.91958 | 1149 ft | 212 kts | 289° |
| 2026-04-30 19:41 | 52.17841 | 20.89696 | 2084 ft | 199 kts | 257° |
| 2026-04-30 19:41 | 52.17570 | 20.87384 | 2490 ft | 218 kts | 258° |
| 2026-04-30 19:41 | 52.17285 | 20.84891 | 3011 ft | 229 kts | 258° |
| 2026-04-30 19:42 | 52.16992 | 20.82334 | 3614 ft | 236 kts | 258° |
| 2026-04-30 19:42 | 52.16785 | 20.79611 | 4238 ft | 245 kts | 261° |
| 2026-04-30 19:42 | 52.16094 | 20.77190 | 5014 ft | 241 kts | 224° |
| 2026-04-30 19:42 | 52.14595 | 20.75943 | 5447 ft | 253 kts | 187° |
| 2026-04-30 19:43 | 52.12826 | 20.76043 | 6124 ft | 257 kts | 176° |
| 2026-04-30 19:43 | 52.11049 | 20.76270 | 6799 ft | 261 kts | 176° |
| 2026-04-30 19:43 | 52.09249 | 20.76509 | 7444 ft | 265 kts | 176° |
| 2026-04-30 19:44 | 52.05564 | 20.77027 | 8730 ft | 270 kts | 176° |
| 2026-04-30 19:44 | 52.03701 | 20.77303 | 9341 ft | 273 kts | 176° |
| 2026-04-30 19:44 | 52.01801 | 20.77600 | 9935 ft | 275 kts | 176° |
| 2026-04-30 19:44 | 51.99891 | 20.77908 | 10499 ft | 278 kts | 176° |
| 2026-04-30 19:45 | 51.97952 | 20.77915 | 10914 ft | 283 kts | 195° |
| 2026-04-30 19:45 | 51.96207 | 20.76407 | 11301 ft | 288 kts | 217° |
| 2026-04-30 19:45 | 51.94518 | 20.74742 | 11816 ft | 291 kts | 208° |
| 2026-04-30 19:45 | 51.92657 | 20.73347 | 12258 ft | 297 kts | 205° |
| 2026-04-30 19:46 | 51.90722 | 20.72053 | 12629 ft | 304 kts | 203° |
| 2026-04-30 19:46 | 51.89003 | 20.70958 | 12989 ft | 308 kts | 203° |
| 2026-04-30 19:46 | 51.86966 | 20.69689 | 13451 ft | 311 kts | 202° |
| 2026-04-30 19:46 | 51.84948 | 20.68444 | 13901 ft | 313 kts | 202° |
| 2026-04-30 19:47 | 51.82896 | 20.67186 | 14334 ft | 315 kts | 202° |
| 2026-04-30 19:47 | 51.81546 | 20.66358 | 14612 ft | 317 kts | 202° |
| 2026-04-30 19:47 | 51.78770 | 20.64661 | 15166 ft | 320 kts | 203° |
| 2026-04-30 19:47 | 51.76687 | 20.63389 | 15562 ft | 322 kts | 203° |
| 2026-04-30 19:48 | 51.74612 | 20.62123 | 15920 ft | 322 kts | 203° |
| 2026-04-30 19:48 | 51.72495 | 20.60833 | 16125 ft | 324 kts | 203° |
| 2026-04-30 19:48 | 51.70388 | 20.59550 | 16322 ft | 326 kts | 203° |
| 2026-04-30 19:48 | 51.68240 | 20.58244 | 16544 ft | 327 kts | 203° |
| 2026-04-30 19:49 | 51.66114 | 20.56953 | 16755 ft | 329 kts | 203° |
| 2026-04-30 19:49 | 51.61827 | 20.54352 | 17159 ft | 331 kts | 203° |
| 2026-04-30 19:49 | 51.59660 | 20.53039 | 17355 ft | 332 kts | 203° |
| 2026-04-30 19:50 | 51.57473 | 20.51716 | 17546 ft | 334 kts | 203° |
| 2026-04-30 19:50 | 51.55302 | 20.50404 | 17728 ft | 335 kts | 203° |
| 2026-04-30 19:50 | 51.53125 | 20.49090 | 17904 ft | 336 kts | 203° |
| 2026-04-30 19:50 | 51.50944 | 20.47774 | 18079 ft | 337 kts | 203° |
| 2026-04-30 19:51 | 51.48757 | 20.46456 | 18252 ft | 338 kts | 203° |
| 2026-04-30 19:51 | 51.46536 | 20.45120 | 18416 ft | 339 kts | 203° |
| 2026-04-30 19:51 | 51.44312 | 20.43782 | 18579 ft | 340 kts | 203° |
| 2026-04-30 19:51 | 51.42098 | 20.42452 | 18740 ft | 341 kts | 204° |
| 2026-04-30 19:52 | 51.39893 | 20.41128 | 18892 ft | 342 kts | 204° |
| 2026-04-30 19:52 | 51.37674 | 20.39798 | 19044 ft | 343 kts | 204° |
| 2026-04-30 19:52 | 51.35446 | 20.38464 | 19191 ft | 344 kts | 204° |
| 2026-04-30 19:52 | 51.33212 | 20.37128 | 19336 ft | 345 kts | 204° |
| 2026-04-30 19:53 | 51.30944 | 20.35773 | 19474 ft | 346 kts | 204° |
| 2026-04-30 19:53 | 51.28701 | 20.34434 | 19607 ft | 347 kts | 203° |
| 2026-04-30 19:53 | 51.26450 | 20.33092 | 19738 ft | 348 kts | 203° |
| 2026-04-30 19:53 | 51.24194 | 20.31747 | 19873 ft | 348 kts | 203° |
| 2026-04-30 19:54 | 51.21909 | 20.30388 | 20006 ft | 349 kts | 203° |
| 2026-04-30 19:54 | 51.19615 | 20.29024 | 20136 ft | 350 kts | 203° |
| 2026-04-30 19:54 | 51.17331 | 20.27668 | 20243 ft | 350 kts | 203° |
| 2026-04-30 19:54 | 51.15092 | 20.26339 | 20352 ft | 347 kts | 203° |
| 2026-04-30 19:55 | 51.12812 | 20.24990 | 20327 ft | 347 kts | 203° |
| 2026-04-30 19:55 | 51.10548 | 20.23649 | 20783 ft | 352 kts | 203° |
| 2026-04-30 19:55 | 51.08231 | 20.22278 | 20738 ft | 356 kts | 203° |
| 2026-04-30 19:55 | 51.05894 | 20.20898 | 20770 ft | 357 kts | 203° |
| 2026-04-30 19:56 | 51.03586 | 20.19536 | 20767 ft | 356 kts | 203° |
| 2026-04-30 19:56 | 51.01278 | 20.18176 | 20734 ft | 355 kts | 203° |
| 2026-04-30 19:56 | 50.98972 | 20.16819 | 20611 ft | 355 kts | 203° |
| 2026-04-30 19:56 | 50.96665 | 20.15461 | 20241 ft | 357 kts | 203° |
| 2026-04-30 19:57 | 50.94361 | 20.14108 | 19856 ft | 352 kts | 203° |
| 2026-04-30 19:57 | 50.92064 | 20.12760 | 19462 ft | 347 kts | 203° |
| 2026-04-30 19:57 | 50.89806 | 20.11437 | 19082 ft | 343 kts | 203° |
| 2026-04-30 19:57 | 50.87580 | 20.10133 | 18705 ft | 340 kts | 203° |
| 2026-04-30 19:58 | 50.85374 | 20.08842 | 18331 ft | 337 kts | 203° |
| 2026-04-30 19:58 | 50.83181 | 20.07559 | 17579 ft | 345 kts | 203° |
| 2026-04-30 19:58 | 50.81037 | 20.05969 | 16454 ft | 349 kts | 217° |
| 2026-04-30 19:58 | 50.79369 | 20.03271 | 15371 ft | 343 kts | 231° |
| 2026-04-30 19:59 | 50.77911 | 20.00385 | 14334 ft | 340 kts | 232° |
| 2026-04-30 19:59 | 50.76479 | 19.97471 | 13289 ft | 336 kts | 232° |
| 2026-04-30 19:59 | 50.73685 | 19.91723 | 11583 ft | 319 kts | 233° |
| 2026-04-30 20:00 | 50.72371 | 19.89016 | 11233 ft | 309 kts | 233° |
| 2026-04-30 20:00 | 50.71086 | 19.86371 | 10893 ft | 298 kts | 233° |
| 2026-04-30 20:00 | 50.69846 | 19.83819 | 10556 ft | 289 kts | 233° |
| 2026-04-30 20:00 | 50.68636 | 19.81332 | 10233 ft | 280 kts | 233° |
| 2026-04-30 20:01 | 50.66334 | 19.76605 | 9639 ft | 264 kts | 234° |
| 2026-04-30 20:01 | 50.65232 | 19.74346 | 9345 ft | 255 kts | 234° |
| 2026-04-30 20:01 | 50.64171 | 19.72172 | 9069 ft | 245 kts | 234° |
| 2026-04-30 20:02 | 50.62174 | 19.68085 | 8552 ft | 228 kts | 234° |
| 2026-04-30 20:02 | 50.61215 | 19.66125 | 8313 ft | 224 kts | 234° |
| 2026-04-30 20:03 | 50.59276 | 19.62165 | 7485 ft | 229 kts | 234° |
| 2026-04-30 20:03 | 50.58308 | 19.60189 | 7197 ft | 225 kts | 234° |
| 2026-04-30 20:03 | 50.57359 | 19.58256 | 6951 ft | 224 kts | 234° |
| 2026-04-30 20:03 | 50.56403 | 19.56309 | 6700 ft | 224 kts | 234° |
| 2026-04-30 20:04 | 50.55448 | 19.54366 | 6453 ft | 224 kts | 234° |
| 2026-04-30 20:04 | 50.54492 | 19.52421 | 6205 ft | 225 kts | 234° |
| 2026-04-30 20:04 | 50.53531 | 19.50468 | 5957 ft | 225 kts | 234° |
| 2026-04-30 20:05 | 50.51656 | 19.46663 | 5544 ft | 213 kts | 234° |
| 2026-04-30 20:05 | 50.50755 | 19.44836 | 5241 ft | 208 kts | 234° |
| 2026-04-30 20:05 | 50.49047 | 19.41376 | 4773 ft | 193 kts | 234° |
| 2026-04-30 20:06 | 50.48231 | 19.39726 | 4567 ft | 190 kts | 234° |
| 2026-04-30 20:06 | 50.47653 | 19.37921 | 4334 ft | 186 kts | 265° |
| 2026-04-30 20:06 | 50.47593 | 19.35902 | 4175 ft | 186 kts | 270° |
| 2026-04-30 20:06 | 50.47566 | 19.33958 | 4101 ft | 184 kts | 270° |
| 2026-04-30 20:07 | 50.47551 | 19.31946 | 4014 ft | 184 kts | 270° |
| 2026-04-30 20:07 | 50.47533 | 19.30033 | 3966 ft | 163 kts | 270° |
| 2026-04-30 20:07 | 50.47549 | 19.26944 | 3936 ft | 157 kts | 274° |
| 2026-04-30 20:08 | 50.47602 | 19.25292 | 3565 ft | 151 kts | 273° |
| 2026-04-30 20:08 | 50.47630 | 19.23601 | 2937 ft | 159 kts | 270° |
| 2026-04-30 20:08 | 50.47599 | 19.21908 | 2543 ft | 149 kts | 269° |
| 2026-04-30 20:08 | 50.47573 | 19.20348 | 2226 ft | 139 kts | 270° |
| 2026-04-30 20:09 | 50.47552 | 19.18865 | 1891 ft | 133 kts | 269° |
| 2026-04-30 20:09 | 50.47535 | 19.17498 | 1645 ft | 120 kts | 269° |
| 2026-04-30 20:09 | 50.47571 | 19.14806 | 1577 ft | 132 kts | 271° |
| 2026-04-30 20:10 | 50.47597 | 19.11992 | 1227 ft | 117 kts | 270° |
| 2026-04-30 20:10 | 50.47598 | 19.10553 | 1131 ft | 142 kts | 271° |
| 2026-04-30 20:10 | 50.47604 | 19.09095 | 987 ft | 122 kts | 267° |
| 2026-04-30 20:11 | 50.47610 | 19.07486 | 977 ft | 38 kts | 270° |
| 2026-04-30 20:11 | 50.47577 | 19.07083 | 974 ft | 34 kts | 244° |
| 2026-04-30 20:11 | 50.47497 | 19.06871 | 973 ft | 10 kts | 229° |
| 2026-04-30 20:12 | 50.47468 | 19.06838 | 973 ft | 1 kts | 214° |
| 2026-04-30 20:12 | 50.47454 | 19.06811 | 973 ft | 5 kts | 241° |
| 2026-04-30 20:12 | 50.47435 | 19.06731 | 974 ft | 10 kts | 254° |
| 2026-04-30 20:13 | 50.47417 | 19.06628 | 974 ft | 1 kts | 236° |
| 2026-04-30 20:13 | 50.47395 | 19.06620 | 974 ft | 3 kts | 177° |
| 2026-04-30 20:13 | 50.47353 | 19.06622 | 975 ft | 9 kts | 180° |
| 2026-04-30 20:13 | 50.47280 | 19.06622 | 976 ft | 11 kts | 163° |
| 2026-04-30 20:14 | 50.47237 | 19.06729 | 977 ft | 12 kts | 92° |
| 2026-04-30 20:14 | 50.47239 | 19.06897 | 978 ft | 17 kts | 91° |
| 2026-04-30 20:14 | 50.47235 | 19.07069 | 979 ft | 14 kts | 88° |
| 2026-04-30 20:14 | 50.47232 | 19.07235 | 981 ft | 11 kts | 95° |
| 2026-04-30 20:15 | 50.47208 | 19.07282 | 981 ft | 0 kts | 200° |
| 2026-04-30 20:15 | 50.47207 | 19.07282 | 981 ft | 0 kts | 188° |
| 2026-04-30 20:15 | 50.47206 | 19.07281 | 981 ft | 0 kts | 190° |